Back to Top

Language: 

My Weather Underground Personal Weather Station Historical Data with Graphs...

Delerius Weather Station Historical Data
 
Daily Summary for December 16, 2018 Units:  Metric    English   Both
« Previous Day
Next Day »
Daily Weekly Monthly Yearly Custom
  Current: High: Low: Average:
Temperature: 3.9 °C 7.2 °C 3.9 °C 6 °C
Dew Point: 2.4 °C 4.8 °C 2.2 °C 3.6 °C
Humidity: 90 % 90 % 80 % 84 %
Wind Speed: 1.6 km/h 33.8 km/h 0 km/h 13.2 km/h
Wind Gust: 3.2 km/h 57.9 km/h - -
Wind:South - - SW
Pressure: 1002.9 hPa 1002.9 hPa 995.8 hPa -
Precipitation: 0 mm      
Historical Graphs
 
 
Tabular Data for December 16, 2018
Time Temperature Dew Point Pressure Wind Wind Speed Wind Gust Humidity Rainfall Rate (Hourly) solar Conditions
00:04 6.8 °C 4.8 °C 995.8 hPa WSW 33.8 km/h 54.7 km/h 87 % 0 mm 0.00 W/m2
00:09 6.8 °C 4.6 °C 995.8 hPa WSW 25.7 km/h 40.2 km/h 86 % 0 mm 0.00 W/m2
00:14 6.8 °C 4.6 °C 995.8 hPa WSW 27.4 km/h 45.1 km/h 86 % 0 mm 0.00 W/m2
00:19 6.8 °C 4.6 °C 996.2 hPa SW 29 km/h 45.1 km/h 86 % 0 mm 0.00 W/m2
00:24 6.8 °C 4.6 °C 996.2 hPa WSW 25.7 km/h 48.3 km/h 86 % 0 mm 0.00 W/m2
00:29 6.8 °C 4.4 °C 996.2 hPa WSW 24.1 km/h 37 km/h 85 % 0 mm 0.00 W/m2
00:34 6.8 °C 4.4 °C 996.2 hPa SW 29 km/h 43.5 km/h 85 % 0 mm 0.00 W/m2
00:39 6.9 °C 4.4 °C 996.2 hPa SW 27.4 km/h 41.8 km/h 84 % 0 mm 0.00 W/m2
00:44 6.9 °C 4.4 °C 996.2 hPa WSW 29 km/h 41.8 km/h 84 % 0 mm 0.00 W/m2
00:49 6.9 °C 4.4 °C 996.5 hPa WSW 29 km/h 43.5 km/h 84 % 0 mm 0.00 W/m2
00:54 7 °C 4.3 °C 996.2 hPa WSW 32.2 km/h 57.9 km/h 83 % 0 mm 0.00 W/m2
00:59 7.1 °C 4.2 °C 996.2 hPa WSW 30.6 km/h 45.1 km/h 82 % 0 mm 0.00 W/m2
01:04 7.1 °C 4.1 °C 996.5 hPa WSW 32.2 km/h 49.9 km/h 81 % 0 mm 0.00 W/m2
01:09 7.1 °C 4.1 °C 996.5 hPa SW 27.4 km/h 48.3 km/h 81 % 0 mm 0.00 W/m2
01:14 7.1 °C 4.1 °C 996.8 hPa WSW 20.9 km/h 33.8 km/h 81 % 0 mm 0.00 W/m2
01:19 7.1 °C 4.1 °C 996.8 hPa WSW 27.4 km/h 43.5 km/h 81 % 0 mm 0.00 W/m2
01:24 7.1 °C 4.1 °C 997.2 hPa WSW 29 km/h 49.9 km/h 81 % 0 mm 0.00 W/m2
01:29 7.1 °C 3.9 °C 997.2 hPa SW 25.7 km/h 40.2 km/h 80 % 0 mm 0.00 W/m2
01:34 7.2 °C 4 °C 997.2 hPa WSW 27.4 km/h 46.7 km/h 80 % 0 mm 0.00 W/m2
01:39 7.2 °C 4 °C 997.2 hPa SW 27.4 km/h 43.5 km/h 80 % 0 mm 0.00 W/m2
01:44 7.1 °C 3.9 °C 997.5 hPa WSW 25.7 km/h 40.2 km/h 80 % 0 mm 0.00 W/m2
01:49 7.1 °C 3.9 °C 997.9 hPa SW 22.5 km/h 33.8 km/h 80 % 0 mm 0.00 W/m2
01:54 7 °C 3.9 °C 997.9 hPa WSW 20.9 km/h 38.6 km/h 81 % 0 mm 0.00 W/m2
01:59 7 °C 3.9 °C 998.2 hPa WSW 16.1 km/h 24.1 km/h 81 % 0 mm 0.00 W/m2
02:04 6.9 °C 3.9 °C 998.2 hPa WSW 19.3 km/h 38.6 km/h 81 % 0 mm 0.00 W/m2
02:09 6.9 °C 3.9 °C 998.2 hPa SW 19.3 km/h 30.6 km/h 81 % 0 mm 0.00 W/m2
02:14 6.9 °C 3.9 °C 998.5 hPa WSW 19.3 km/h 29 km/h 81 % 0 mm 0.00 W/m2
02:19 6.9 °C 3.7 °C 998.9 hPa SW 14.5 km/h 25.7 km/h 80 % 0 mm 0.00 W/m2
02:24 7 °C 3.8 °C 998.9 hPa WSW 12.9 km/h 30.6 km/h 80 % 0 mm 0.00 W/m2
02:29 6.9 °C 3.7 °C 998.9 hPa SW 16.1 km/h 24.1 km/h 80 % 0 mm 0.00 W/m2
02:34 6.9 °C 3.7 °C 999.2 hPa SW 14.5 km/h 24.1 km/h 80 % 0 mm 0.00 W/m2
02:39 6.9 °C 3.7 °C 999.2 hPa SW 16.1 km/h 25.7 km/h 80 % 0 mm 0.00 W/m2
02:44 6.9 °C 3.9 °C 999.2 hPa SW 16.1 km/h 24.1 km/h 81 % 0 mm 0.00 W/m2
02:49 6.8 °C 3.8 °C 999.2 hPa WSW 17.7 km/h 29 km/h 81 % 0 mm 0.00 W/m2
02:54 6.8 °C 3.8 °C 999.2 hPa WSW 14.5 km/h 19.3 km/h 81 % 0 mm 0.00 W/m2
02:59 6.8 °C 3.8 °C 999.5 hPa WSW 14.5 km/h 24.1 km/h 81 % 0 mm 0.00 W/m2
03:04 6.7 °C 3.8 °C 999.5 hPa WSW 16.1 km/h 29 km/h 82 % 0 mm 0.00 W/m2
03:09 6.7 °C 3.8 °C 999.5 hPa WSW 14.5 km/h 24.1 km/h 82 % 0 mm 0.00 W/m2
03:14 6.7 °C 3.8 °C 999.5 hPa WSW 11.3 km/h 17.7 km/h 82 % 0 mm 0.00 W/m2
03:19 6.6 °C 3.7 °C 999.9 hPa WSW 16.1 km/h 25.7 km/h 82 % 0 mm 0.00 W/m2
03:24 6.6 °C 3.7 °C 999.9 hPa WSW 14.5 km/h 24.1 km/h 82 % 0 mm 0.00 W/m2
03:29 6.6 °C 3.7 °C 999.9 hPa WSW 14.5 km/h 25.7 km/h 82 % 0 mm 0.00 W/m2
03:35 6.6 °C 3.7 °C 999.9 hPa WSW 14.5 km/h 19.3 km/h 82 % 0 mm 0.00 W/m2
03:39 6.5 °C 3.7 °C 999.9 hPa WSW 9.7 km/h 20.9 km/h 82 % 0 mm 0.00 W/m2
03:44 6.4 °C 3.7 °C 999.9 hPa WSW 16.1 km/h 24.1 km/h 83 % 0 mm 0.00 W/m2
03:49 6.4 °C 3.7 °C 999.9 hPa SW 16.1 km/h 20.9 km/h 83 % 0 mm 0.00 W/m2
03:54 6.4 °C 3.7 °C 1000.2 hPa WSW 12.9 km/h 20.9 km/h 83 % 0 mm 0.00 W/m2
03:59 6.3 °C 3.6 °C 1000.2 hPa WSW 12.9 km/h 19.3 km/h 83 % 0 mm 0.00 W/m2
04:04 6.3 °C 3.6 °C 1000.2 hPa SW 8 km/h 14.5 km/h 83 % 0 mm 0.00 W/m2
04:09 6.3 °C 3.6 °C 1000.2 hPa WSW 11.3 km/h 16.1 km/h 83 % 0 mm 0.00 W/m2
04:14 6.3 °C 3.6 °C 1000.2 hPa SW 16.1 km/h 22.5 km/h 83 % 0 mm 0.00 W/m2
04:19 6.3 °C 3.6 °C 1000.6 hPa SW 14.5 km/h 19.3 km/h 83 % 0 mm 0.00 W/m2
04:24 6.2 °C 3.5 °C 1000.6 hPa SW 9.7 km/h 16.1 km/h 83 % 0 mm 0.00 W/m2
04:29 6.1 °C 3.6 °C 1000.6 hPa SW 9.7 km/h 16.1 km/h 84 % 0 mm 0.00 W/m2
04:34 6.1 °C 3.6 °C 1000.6 hPa WSW 6.4 km/h 14.5 km/h 84 % 0 mm 0.00 W/m2
04:39 6.1 °C 3.6 °C 1000.6 hPa SW 4.8 km/h 11.3 km/h 84 % 0 mm 0.00 W/m2
04:44 6 °C 3.5 °C 1000.6 hPa SW 4.8 km/h 9.7 km/h 84 % 0 mm 0.00 W/m2
04:49 5.9 °C 3.4 °C 1000.6 hPa SW 8 km/h 12.9 km/h 84 % 0 mm 0.00 W/m2
04:54 5.8 °C 3.3 °C 1000.6 hPa SW 9.7 km/h 14.5 km/h 84 % 0 mm 0.00 W/m2
04:59 5.8 °C 3.3 °C 1000.6 hPa SW 8 km/h 12.9 km/h 84 % 0 mm 0.00 W/m2
05:04 5.7 °C 3.4 °C 1000.6 hPa SW 8 km/h 16.1 km/h 85 % 0 mm 0.00 W/m2
05:09 5.6 °C 3.3 °C 1000.9 hPa WSW 4.8 km/h 11.3 km/h 85 % 0 mm 0.00 W/m2
05:14 5.5 °C 3.2 °C 1000.9 hPa SW 6.4 km/h 16.1 km/h 85 % 0 mm 0.00 W/m2
05:19 5.5 °C 3.3 °C 1000.9 hPa WSW 6.4 km/h 9.7 km/h 86 % 0 mm 0.00 W/m2
05:24 5.4 °C 3.2 °C 1000.9 hPa SSW 3.2 km/h 9.7 km/h 86 % 0 mm 0.00 W/m2
05:29 5.4 °C 3.2 °C 1000.9 hPa SW 4.8 km/h 9.7 km/h 86 % 0 mm 0.00 W/m2
05:34 5.3 °C 3.2 °C 1000.9 hPa SSW 3.2 km/h 8 km/h 86 % 0 mm 0.00 W/m2
05:39 5.3 °C 3.2 °C 1001.2 hPa SSW 1.6 km/h 6.4 km/h 86 % 0 mm 0.00 W/m2
05:44 5.3 °C 3.2 °C 1001.2 hPa South 1.6 km/h 6.4 km/h 86 % 0 mm 0.00 W/m2
05:49 5.1 °C 2.9 °C 1001.2 hPa SSW 1.6 km/h 11.3 km/h 86 % 0 mm 0.00 W/m2
05:54 5 °C 3 °C 1001.2 hPa Calm     87 % 0 mm 0.00 W/m2
05:59 4.9 °C 2.9 °C 1001.6 hPa SW 6.4 km/h 12.9 km/h 87 % 0 mm 0.00 W/m2
06:04 4.9 °C 3.1 °C 1001.6 hPa SW 3.2 km/h 8 km/h 88 % 0 mm 0.00 W/m2
06:09 5 °C 3.2 °C 1001.6 hPa SW 6.4 km/h 11.3 km/h 88 % 0 mm 0.00 W/m2
06:14 5.1 °C 3.3 °C 1001.6 hPa SW 9.7 km/h 16.1 km/h 88 % 0 mm 0.00 W/m2
06:19 5.1 °C 3.3 °C 1001.6 hPa SW 9.7 km/h 14.5 km/h 88 % 0 mm 0.00 W/m2
06:24 5.2 °C 3.4 °C 1001.6 hPa SW 11.3 km/h 17.7 km/h 88 % 0 mm 0.00 W/m2
06:29 5.3 °C 3.5 °C 1001.9 hPa SW 11.3 km/h 16.1 km/h 88 % 0 mm 0.00 W/m2
06:34 5.4 °C 3.4 °C 1001.9 hPa SW 12.9 km/h 19.3 km/h 87 % 0 mm 0.00 W/m2
06:39 5.5 °C 3.5 °C 1001.9 hPa SW 11.3 km/h 16.1 km/h 87 % 0 mm 0.00 W/m2
06:44 5.6 °C 3.6 °C 1001.9 hPa SW 11.3 km/h 22.5 km/h 87 % 0 mm 0.00 W/m2
06:49 5.5 °C 3.3 °C 1001.9 hPa SW 9.7 km/h 14.5 km/h 86 % 0 mm 0.00 W/m2
06:54 5.4 °C 3.2 °C 1001.9 hPa SW 12.9 km/h 19.3 km/h 86 % 0 mm 0.00 W/m2
06:59 5.4 °C 3.2 °C 1001.9 hPa SW 8 km/h 14.5 km/h 86 % 0 mm 0.00 W/m2
07:04 5.3 °C 3.2 °C 1001.9 hPa WSW 6.4 km/h 11.3 km/h 86 % 0 mm 0.00 W/m2
07:09 5.2 °C 3.1 °C 1002.3 hPa WSW 4.8 km/h 9.7 km/h 86 % 0 mm 0.00 W/m2
07:14 5.1 °C 2.9 °C 1002.3 hPa SW 3.2 km/h 9.7 km/h 86 % 0 mm 0.00 W/m2
07:19 5 °C 3 °C 1002.6 hPa SW 1.6 km/h 8 km/h 87 % 0 mm 0.00 W/m2
07:24 4.8 °C 2.8 °C 1002.6 hPa Calm     87 % 0 mm 0.00 W/m2
07:29 4.7 °C 2.7 °C 1002.6 hPa Calm     87 % 0 mm 0.00 W/m2
07:34 4.4 °C 2.4 °C 1002.6 hPa Calm     87 % 0 mm 0.00 W/m2
07:39 4.2 °C 2.2 °C 1002.6 hPa Calm   1.6 km/h 87 % 0 mm 0.00 W/m2
07:44 4.1 °C 2.3 °C 1002.6 hPa Calm   3.2 km/h 88 % 0 mm 0.00 W/m2
07:49 4.1 °C 2.4 °C 1002.6 hPa Calm   3.2 km/h 89 % 0 mm 0.00 W/m2
07:54 4.1 °C 2.4 °C 1002.6 hPa South 1.6 km/h 6.4 km/h 89 % 0 mm 0.00 W/m2
07:59 4.1 °C 2.4 °C 1002.9 hPa South 3.2 km/h 6.4 km/h 89 % 0 mm 0.00 W/m2
08:04 4 °C 2.3 °C 1002.9 hPa South 1.6 km/h 3.2 km/h 89 % 0 mm 0.00 W/m2
08:09 3.9 °C 2.4 °C 1002.9 hPa South 1.6 km/h 3.2 km/h 90 % 0 mm 0.00 W/m2
08:14 3.9 °C 2.4 °C 1002.9 hPa South 1.6 km/h 3.2 km/h 90 % 0 mm 5.00 W/m2
Delerius-Weather
Compliments of Weather Underground - 1.25 mb

Data updates at regular intervals.